Fresno Yosemite International Airport
KFAT : now visible

Airfield :











YOU CAN JOIN US ON...

 
LOGIN :

Register | Disclaimer

   EN    FR    IT 

 









Legend :    VFR   Marginal VFR   IFR   Intensive IFR   Very Intensive IFR
Visi :
Ceiling :
>= 8 km
>= 3000ft
5 to 8 km
1000 to 3000 ft
1500m to 5 km
500 to 1000 ft
800 to 1500m
200 to 500 ft
< 800m
< 200 ft
Symbols :   Thunderstorms  Fog  Heavy snow  Heavy precipitations  Wind > 20 kt






- Airport Elevation : 336 ft
- IATA code : FAT


KFAT - Fresno Yosemite International

CURRENT METAR :
  • 021553Z 31006KT 10SM FEW150 22/08 A2992 RMK AO2 SLP128 T02220078

EXPIRED METARs :
  • 021453Z 32005KT 10SM FEW150 20/08 A2991 RMK AO2 SLP125 T02000083 53010
  • 020253Z 30008KT 10SM SCT130 SCT180 32/07 A2983 RMK AO2 SLP098 T03220067 55008
  • 021353Z 32008KT 10SM FEW150 18/08 A2990 RMK AO2 SLP120 T01830083

TAF KFAT
Valid from the 02 at 12:00 until the 03 at 12:00 UTC


021120Z 0212/0312 32009KT P6SM FEW250
FM030000 31015G22KT P6SM SKC
KZOA FIR / North America



MET'MAP, your aeronautical weather chart ! - Copyright ORBIFLY December 2007 - Disclaimer

ORBIFLY MET'MAP TEAM :

Programming & Development : Alexandra Zaïnal
Original concept : Baudouin d'Aumeries
Technical & hardware support : Manuel Goepfert
Assistance : Marc-Olivier Méhu




SOURCES & CREDITS :

   NOAA       Earth
Advisory